createdAt,value
2022-10-06T00:00:48.753Z,3.93
2022-10-06T00:03:15.902Z,3.70
2022-10-06T00:05:43.082Z,4.40
2022-10-06T00:08:10.435Z,4.50
2022-10-06T00:10:37.059Z,4.17
2022-10-06T00:13:03.429Z,4.03
2022-10-06T00:15:31.918Z,2.50
2022-10-06T00:17:58.976Z,4.50
2022-10-06T00:20:27.183Z,2.30
2022-10-06T00:22:53.687Z,2.43
2022-10-06T00:25:22.543Z,4.70
2022-10-06T00:27:50.944Z,4.53
2022-10-06T00:30:23.323Z,3.60
2022-10-06T00:32:56.971Z,3.10
2022-10-06T00:35:25.498Z,3.67
2022-10-06T00:37:52.670Z,2.60
2022-10-06T00:40:19.591Z,2.80
2022-10-06T00:43:00.068Z,3.00
2022-10-06T00:45:44.113Z,4.87
2022-10-06T00:48:18.042Z,6.60
2022-10-06T00:50:45.262Z,5.53
2022-10-06T00:53:12.256Z,3.70
2022-10-06T00:55:38.804Z,6.60
2022-10-06T00:58:06.310Z,4.43
2022-10-06T01:00:33.618Z,4.00
2022-10-06T01:03:11.762Z,8.10
2022-10-06T01:05:46.654Z,6.70
2022-10-06T01:08:13.460Z,6.10
2022-10-06T01:10:39.730Z,6.80
2022-10-06T01:13:06.641Z,6.77
2022-10-06T01:15:37.253Z,6.93
2022-10-06T01:18:26.991Z,6.40
2022-10-06T01:21:15.875Z,6.40
2022-10-06T01:23:42.402Z,7.70
2022-10-06T01:26:10.816Z,9.13
2022-10-06T01:28:38.800Z,9.57
2022-10-06T01:31:08.233Z,8.53
2022-10-06T01:33:34.686Z,6.97
2022-10-06T01:36:01.020Z,5.63
2022-10-06T01:38:27.921Z,6.53
2022-10-06T01:40:54.549Z,7.40
2022-10-06T01:43:21.409Z,9.60
2022-10-06T01:45:55.257Z,9.80
2022-10-06T01:48:22.306Z,10.07
2022-10-06T01:50:48.672Z,6.93
2022-10-06T01:53:15.099Z,5.67
2022-10-06T01:55:41.544Z,9.17
2022-10-06T01:58:09.158Z,9.37
2022-10-06T02:00:35.612Z,7.53
2022-10-06T02:03:02.029Z,8.43
2022-10-06T02:05:28.317Z,6.07
2022-10-06T02:07:54.709Z,5.30
2022-10-06T02:10:21.081Z,6.37
2022-10-06T02:12:53.849Z,6.37
2022-10-06T02:15:20.853Z,9.37
2022-10-06T02:17:48.128Z,5.17
2022-10-06T02:20:15.200Z,6.60
2022-10-06T02:22:43.631Z,7.23
2022-10-06T02:25:12.058Z,5.50
2022-10-06T02:27:39.165Z,5.70
2022-10-06T02:30:07.572Z,8.13
2022-10-06T02:32:39.733Z,8.90
2022-10-06T02:35:06.973Z,9.17
2022-10-06T02:37:34.002Z,6.20
2022-10-06T02:40:00.513Z,8.57
2022-10-06T02:42:27.006Z,7.80
2022-10-06T02:44:53.890Z,7.70
2022-10-06T02:47:22.211Z,9.20
2022-10-06T02:49:48.638Z,6.50
2022-10-06T02:52:15.418Z,11.73
2022-10-06T02:54:42.372Z,8.90
2022-10-06T02:57:09.454Z,8.07
2022-10-06T02:59:36.478Z,7.63
2022-10-06T03:02:03.099Z,9.37
2022-10-06T03:04:29.896Z,6.53
2022-10-06T03:06:56.230Z,9.27
2022-10-06T03:09:22.578Z,11.10
2022-10-06T03:11:48.946Z,13.10
2022-10-06T03:14:20.553Z,7.40
2022-10-06T03:16:48.213Z,9.10
2022-10-06T03:19:14.558Z,6.93
2022-10-06T03:21:42.772Z,9.20
2022-10-06T03:24:10.003Z,10.73
2022-10-06T03:26:39.268Z,8.20
2022-10-06T03:29:11.124Z,5.50
2022-10-06T03:31:38.729Z,11.10
2022-10-06T03:34:05.536Z,8.83
2022-10-06T03:36:33.566Z,7.17
2022-10-06T03:39:00.870Z,8.83
2022-10-06T03:41:29.574Z,9.60
2022-10-06T03:43:57.977Z,9.83
2022-10-06T03:46:32.276Z,7.17
2022-10-06T03:48:59.282Z,8.50
2022-10-06T03:51:34.063Z,8.33
2022-10-06T03:54:00.910Z,8.53
2022-10-06T03:56:47.560Z,9.90
2022-10-06T03:59:16.361Z,11.90
2022-10-06T04:01:45.038Z,7.07
2022-10-06T04:04:12.692Z,9.50
2022-10-06T04:06:41.616Z,7.10
2022-10-06T04:09:15.213Z,11.67
2022-10-06T04:11:43.875Z,10.13
2022-10-06T04:14:13.030Z,10.97
2022-10-06T04:16:44.588Z,9.57
2022-10-06T04:19:12.727Z,10.43
2022-10-06T04:21:40.751Z,6.07
2022-10-06T04:24:08.099Z,10.37
2022-10-06T04:26:38.445Z,8.17
2022-10-06T04:29:04.800Z,11.63
2022-10-06T04:31:34.530Z,11.40
2022-10-06T04:34:01.472Z,5.67
2022-10-06T04:36:33.054Z,8.70
2022-10-06T04:39:02.842Z,11.30
2022-10-06T04:41:31.948Z,11.73
2022-10-06T04:43:59.050Z,15.37
2022-10-06T04:46:43.733Z,11.57
2022-10-06T04:49:16.220Z,13.20
2022-10-06T04:51:45.291Z,12.43
2022-10-06T04:54:11.798Z,14.73
2022-10-06T04:56:38.145Z,9.37
2022-10-06T04:59:04.464Z,9.20
2022-10-06T05:01:33.603Z,10.30
2022-10-06T05:04:01.909Z,14.50
2022-10-06T05:06:31.272Z,13.67
2022-10-06T05:09:00.212Z,11.33
2022-10-06T05:11:27.613Z,12.43
2022-10-06T05:13:56.581Z,15.43
2022-10-06T05:16:24.534Z,9.27
2022-10-06T05:18:50.881Z,11.33
2022-10-06T05:21:20.132Z,10.07
2022-10-06T05:23:46.885Z,11.00
2022-10-06T05:26:16.268Z,15.37
2022-10-06T05:28:43.347Z,15.33
2022-10-06T05:31:17.264Z,12.83
2022-10-06T05:33:44.429Z,10.40
2022-10-06T05:36:14.409Z,9.97
2022-10-06T05:38:41.523Z,16.37
2022-10-06T05:41:11.943Z,16.50
2022-10-06T05:43:39.149Z,16.60
2022-10-06T05:46:08.374Z,12.00
2022-10-06T05:48:34.743Z,16.00
2022-10-06T05:51:04.297Z,7.80
2022-10-06T05:53:32.794Z,14.20
2022-10-06T05:56:04.333Z,20.93
2022-10-06T05:58:31.974Z,18.10
2022-10-06T06:01:17.051Z,14.73
2022-10-06T06:03:48.051Z,14.27
2022-10-06T06:06:38.048Z,10.30
2022-10-06T06:09:10.826Z,12.20
2022-10-06T06:11:39.744Z,10.93
2022-10-06T06:14:08.742Z,11.93
2022-10-06T06:16:38.891Z,10.37
2022-10-06T06:19:07.248Z,11.47
2022-10-06T06:21:34.086Z,15.90
2022-10-06T06:24:00.505Z,11.90
2022-10-06T06:26:28.973Z,19.03
2022-10-06T06:29:02.464Z,17.20
2022-10-06T06:31:31.198Z,16.87
2022-10-06T06:33:59.871Z,16.37
2022-10-06T06:36:31.811Z,10.77
2022-10-06T06:38:58.586Z,17.40
2022-10-06T06:41:31.002Z,8.40
2022-10-06T06:44:00.030Z,8.90
2022-10-06T06:46:31.714Z,15.30
2022-10-06T06:49:04.280Z,10.03
2022-10-06T06:51:35.819Z,11.43
2022-10-06T06:54:05.013Z,15.40
2022-10-06T06:56:34.764Z,14.83
2022-10-06T06:59:02.428Z,13.40
2022-10-06T07:01:29.097Z,15.83
2022-10-06T07:03:59.054Z,13.40
2022-10-06T07:06:28.864Z,14.30
2022-10-06T07:08:59.830Z,14.93
2022-10-06T07:11:34.286Z,10.80
2022-10-06T07:14:03.115Z,20.73
2022-10-06T07:16:49.198Z,14.10
2022-10-06T07:19:35.939Z,19.40
2022-10-06T07:22:26.684Z,17.40
2022-10-06T07:25:12.716Z,12.87
2022-10-06T07:27:52.535Z,15.30
2022-10-06T07:30:25.513Z,15.00
2022-10-06T07:32:53.052Z,14.00
2022-10-06T07:35:21.402Z,16.37
2022-10-06T07:37:49.272Z,15.67
2022-10-06T07:40:16.252Z,20.23
2022-10-06T07:42:48.683Z,23.30
2022-10-06T07:45:38.329Z,16.30
2022-10-06T07:48:11.174Z,16.80
2022-10-06T07:50:39.351Z,18.87
2022-10-06T07:53:08.636Z,20.63
2022-10-06T07:55:39.944Z,15.50
2022-10-06T07:58:18.025Z,21.17
2022-10-06T08:00:45.754Z,17.43
2022-10-06T08:03:18.076Z,15.70
2022-10-06T08:05:49.273Z,20.50
2022-10-06T08:08:16.773Z,22.60
2022-10-06T08:10:43.854Z,20.73
2022-10-06T08:13:10.505Z,21.37
2022-10-06T08:15:36.950Z,13.27
2022-10-06T08:18:12.167Z,12.20
2022-10-06T08:20:47.891Z,18.30
2022-10-06T08:23:14.631Z,15.13
2022-10-06T08:25:43.196Z,20.20
2022-10-06T08:28:13.390Z,16.20
2022-10-06T08:30:39.876Z,18.97
2022-10-06T08:33:06.312Z,19.00
2022-10-06T08:35:33.754Z,14.43
2022-10-06T08:38:00.174Z,16.37
2022-10-06T08:40:28.576Z,18.00
2022-10-06T08:43:03.090Z,17.50
2022-10-06T08:45:38.822Z,15.40
2022-10-06T08:48:19.558Z,10.30
2022-10-06T08:51:09.134Z,16.97
2022-10-06T08:53:46.876Z,13.70
2022-10-06T08:56:22.500Z,16.47
2022-10-06T08:58:55.584Z,12.73
2022-10-06T09:01:25.605Z,10.97
2022-10-06T09:04:01.653Z,18.33
2022-10-06T09:06:59.864Z,17.17
2022-10-06T09:09:44.043Z,12.97
2022-10-06T09:12:29.854Z,13.50
2022-10-06T09:15:02.546Z,12.13
2022-10-06T09:17:50.231Z,17.40
2022-10-06T09:20:32.457Z,15.40
2022-10-06T09:23:01.689Z,14.07
2022-10-06T09:25:29.955Z,13.50
2022-10-06T09:28:01.399Z,10.33
2022-10-06T09:30:27.819Z,11.10
2022-10-06T09:33:05.805Z,15.63
2022-10-06T09:35:32.614Z,17.93
2022-10-06T09:38:08.171Z,12.53
2022-10-06T09:40:50.229Z,20.37
2022-10-06T09:43:29.142Z,13.23
2022-10-06T09:46:17.631Z,17.20
2022-10-06T09:48:43.960Z,11.17
2022-10-06T09:51:14.750Z,17.97
2022-10-06T09:53:42.687Z,8.67
2022-10-06T09:56:21.281Z,11.27
2022-10-06T09:58:59.114Z,9.37
2022-10-06T10:01:28.746Z,15.63
2022-10-06T10:04:21.356Z,24.30
2022-10-06T10:06:48.382Z,12.83
2022-10-06T10:09:21.540Z,10.73
2022-10-06T10:12:28.703Z,13.13
2022-10-06T10:15:03.713Z,11.37
2022-10-06T10:17:32.069Z,9.97
2022-10-06T10:20:00.380Z,14.57
2022-10-06T10:22:35.792Z,10.63
2022-10-06T10:25:53.862Z,14.63
2022-10-06T10:28:20.154Z,9.90
2022-10-06T10:31:11.239Z,8.63
2022-10-06T10:33:59.233Z,10.23
2022-10-06T10:36:40.157Z,7.30
2022-10-06T10:39:13.928Z,9.97
2022-10-06T10:41:49.068Z,9.50
2022-10-06T10:44:33.395Z,6.37
2022-10-06T10:47:22.078Z,5.07
2022-10-06T10:49:58.549Z,8.93
2022-10-06T10:52:30.216Z,8.10
2022-10-06T10:55:06.760Z,7.70
2022-10-06T10:57:40.371Z,9.17
2022-10-06T11:00:28.685Z,8.03
2022-10-06T11:02:58.120Z,7.10
2022-10-06T11:05:40.038Z,8.43
2022-10-06T11:08:11.775Z,8.80
2022-10-06T11:10:46.448Z,8.73
2022-10-06T11:13:23.480Z,10.20
2022-10-06T11:16:08.813Z,9.87
2022-10-06T11:19:12.669Z,8.93
2022-10-06T11:21:43.625Z,8.80
2022-10-06T11:24:37.604Z,9.87
2022-10-06T11:27:22.777Z,8.43
2022-10-06T11:30:14.927Z,5.50
2022-10-06T11:32:50.162Z,7.53
2022-10-06T11:35:27.485Z,8.47
2022-10-06T11:38:13.445Z,7.03
2022-10-06T11:40:54.941Z,6.17
2022-10-06T11:43:39.549Z,7.57
2022-10-06T11:46:20.127Z,11.30
2022-10-06T11:48:46.685Z,5.37
2022-10-06T11:51:28.374Z,5.43
2022-10-06T11:53:58.578Z,4.33
2022-10-06T11:56:38.253Z,5.80
2022-10-06T11:59:13.606Z,9.20
2022-10-06T12:01:39.920Z,9.30
2022-10-06T12:04:09.290Z,8.03
2022-10-06T12:06:41.884Z,9.93
2022-10-06T12:09:28.521Z,7.87
2022-10-06T12:11:55.945Z,6.20
2022-10-06T12:17:43.730Z,6.57
2022-10-06T12:20:24.784Z,10.80
2022-10-06T12:23:00.274Z,9.07
2022-10-06T12:25:43.468Z,13.27
2022-10-06T12:28:18.827Z,8.60
2022-10-06T12:30:51.375Z,7.90
2022-10-06T12:33:19.675Z,6.70
2022-10-06T12:36:02.203Z,6.13
2022-10-06T12:38:33.594Z,5.80
2022-10-06T12:41:01.627Z,9.07
2022-10-06T12:43:33.564Z,6.90
2022-10-06T12:46:29.069Z,6.10
2022-10-06T12:49:14.932Z,8.33
2022-10-06T12:51:44.444Z,10.50
2022-10-06T12:54:20.360Z,6.27
2022-10-06T12:57:16.757Z,11.10
2022-10-06T12:59:43.163Z,7.10
2022-10-06T13:02:18.548Z,7.77
2022-10-06T13:04:49.194Z,8.50
2022-10-06T13:07:22.316Z,6.47
2022-10-06T13:09:54.208Z,9.90
2022-10-06T13:12:24.778Z,9.17
2022-10-06T13:15:13.256Z,8.97
2022-10-06T13:17:42.654Z,9.40
2022-10-06T13:20:23.089Z,6.60
2022-10-06T13:23:08.851Z,10.20
2022-10-06T13:25:48.485Z,7.67
2022-10-06T13:28:24.327Z,9.93
2022-10-06T13:30:56.563Z,6.70
2022-10-06T13:33:25.718Z,7.50
2022-10-06T13:35:54.088Z,8.83
2022-10-06T13:38:21.576Z,6.60
2022-10-06T13:41:30.916Z,6.70
2022-10-06T13:44:03.105Z,6.00
2022-10-06T13:46:32.375Z,10.20
2022-10-06T13:49:11.361Z,7.27
2022-10-06T13:51:37.781Z,5.40
2022-10-06T13:54:21.656Z,6.83
2022-10-06T13:56:48.225Z,6.73
2022-10-06T13:59:34.216Z,4.70
2022-10-06T14:02:20.832Z,5.70
2022-10-06T14:05:29.369Z,8.63
2022-10-06T14:07:58.995Z,5.00
2022-10-06T14:10:31.305Z,9.10
2022-10-06T14:13:00.869Z,6.73
2022-10-06T14:15:30.941Z,7.03
2022-10-06T14:18:03.371Z,5.90
2022-10-06T14:20:47.072Z,6.50
2022-10-06T14:23:42.896Z,5.40
2022-10-06T14:26:13.929Z,5.30
2022-10-06T14:28:45.902Z,8.00
2022-10-06T14:31:14.742Z,6.40
2022-10-06T14:33:41.738Z,5.50
2022-10-06T14:36:15.857Z,6.83
2022-10-06T14:38:42.132Z,4.23
2022-10-06T14:41:08.569Z,5.80
2022-10-06T14:43:34.889Z,5.63
2022-10-06T14:46:03.958Z,7.37
2022-10-06T14:48:32.547Z,4.37
2022-10-06T14:51:03.200Z,7.10
2022-10-06T14:53:30.173Z,4.43
2022-10-06T14:56:05.164Z,4.50
2022-10-06T14:58:32.905Z,5.60
2022-10-06T15:01:04.616Z,8.20
2022-10-06T15:03:31.134Z,6.90
2022-10-06T15:06:20.714Z,5.43
2022-10-06T15:08:54.807Z,4.17
2022-10-06T15:11:22.738Z,5.17
2022-10-06T15:13:49.320Z,5.47
2022-10-06T15:16:17.386Z,7.10
2022-10-06T15:18:44.233Z,7.27
2022-10-06T15:21:11.562Z,4.63
2022-10-06T15:23:39.183Z,11.53
2022-10-06T15:26:25.172Z,4.63
2022-10-06T15:29:00.539Z,8.73
2022-10-06T15:31:33.472Z,6.33
2022-10-06T15:34:01.722Z,7.20
2022-10-06T15:36:33.375Z,10.10
2022-10-06T15:39:05.428Z,6.50
2022-10-06T15:41:33.709Z,7.13
2022-10-06T15:44:00.139Z,7.03
2022-10-06T15:46:30.010Z,6.60
2022-10-06T15:49:02.106Z,4.57
2022-10-06T15:51:46.482Z,7.20
2022-10-06T15:54:14.272Z,6.07
2022-10-06T15:56:42.011Z,7.67
2022-10-06T15:59:08.371Z,5.37
2022-10-06T16:01:42.200Z,6.20
2022-10-06T16:04:38.261Z,6.77
2022-10-06T16:07:06.480Z,8.10
2022-10-06T16:09:37.093Z,5.10
2022-10-06T16:12:07.894Z,5.53
2022-10-06T16:14:35.118Z,10.33
2022-10-06T16:17:04.053Z,8.67
2022-10-06T16:19:31.801Z,6.93
2022-10-06T16:21:59.348Z,6.23
2022-10-06T16:24:26.561Z,4.53
2022-10-06T16:26:53.749Z,6.67
2022-10-06T16:29:21.616Z,5.93
2022-10-06T16:31:48.583Z,7.90
2022-10-06T16:34:15.339Z,3.00
2022-10-06T16:36:42.167Z,6.87
2022-10-06T16:39:13.692Z,4.47
2022-10-06T16:41:40.012Z,7.70
2022-10-06T16:44:06.401Z,7.20
2022-10-06T16:46:32.935Z,10.77
2022-10-06T16:49:01.415Z,4.00
2022-10-06T16:51:32.878Z,4.67
2022-10-06T16:54:01.331Z,4.17
2022-10-06T16:56:36.253Z,10.03
2022-10-06T16:59:05.485Z,10.37
2022-10-06T17:01:34.728Z,6.20
2022-10-06T17:04:03.262Z,6.63
2022-10-06T17:06:31.407Z,4.60
2022-10-06T17:08:57.796Z,3.40
2022-10-06T17:11:25.405Z,4.97
2022-10-06T17:13:57.778Z,4.50
2022-10-06T17:16:28.017Z,7.83
2022-10-06T17:18:56.073Z,6.13
2022-10-06T17:21:44.931Z,5.10
2022-10-06T17:24:10.701Z,5.30
2022-10-06T17:26:40.240Z,4.17
2022-10-06T17:29:11.679Z,3.13
2022-10-06T17:31:40.918Z,4.73
2022-10-06T17:34:12.824Z,6.87
2022-10-06T17:36:47.396Z,8.30
2022-10-06T17:39:15.514Z,11.27
2022-10-06T17:41:43.533Z,6.27
2022-10-06T17:44:22.230Z,5.70
2022-10-06T17:46:50.930Z,5.40
2022-10-06T17:49:22.454Z,4.10
2022-10-06T17:51:51.456Z,8.27
2022-10-06T17:54:20.936Z,5.57
2022-10-06T17:56:55.697Z,3.97
2022-10-06T17:59:24.571Z,6.23
2022-10-06T18:01:53.871Z,6.60
2022-10-06T18:04:20.339Z,6.50
2022-10-06T18:06:47.906Z,6.93
2022-10-06T18:09:15.239Z,5.87
2022-10-06T18:11:43.815Z,4.33
2022-10-06T18:14:17.454Z,10.30
2022-10-06T18:16:45.198Z,4.77
2022-10-06T18:19:13.214Z,5.77
2022-10-06T18:21:41.410Z,4.83
2022-10-06T18:24:12.714Z,8.27
2022-10-06T18:26:41.809Z,5.37
2022-10-06T18:29:10.583Z,7.47
2022-10-06T18:31:38.677Z,5.50
2022-10-06T18:36:52.727Z,6.07
2022-10-06T18:39:19.259Z,6.37
2022-10-06T18:41:46.392Z,6.77
2022-10-06T18:44:13.128Z,6.17
2022-10-06T18:46:58.089Z,8.57
2022-10-06T18:49:25.247Z,11.13
2022-10-06T18:51:58.109Z,10.30
2022-10-06T18:54:27.383Z,7.70
2022-10-06T18:56:55.008Z,7.40
2022-10-06T18:59:24.177Z,7.73
2022-10-06T19:01:50.963Z,6.10
2022-10-06T19:04:19.820Z,7.20
2022-10-06T19:06:49.570Z,7.50
2022-10-06T19:09:18.255Z,10.23
2022-10-06T19:11:52.227Z,7.10
2022-10-06T19:14:21.834Z,5.20
2022-10-06T19:16:52.170Z,9.27
2022-10-06T19:19:19.932Z,9.10
2022-10-06T19:21:51.809Z,8.37
2022-10-06T19:24:20.801Z,9.17
2022-10-06T19:26:50.079Z,5.93
2022-10-06T19:29:20.793Z,5.97
2022-10-06T19:31:47.942Z,8.03
2022-10-06T19:34:24.528Z,4.80
2022-10-06T19:36:54.762Z,6.13
2022-10-06T19:39:24.257Z,8.67
2022-10-06T19:42:09.800Z,7.00
2022-10-06T19:44:42.736Z,8.30
2022-10-06T19:47:12.151Z,8.20
2022-10-06T19:49:38.873Z,8.30
2022-10-06T19:52:07.994Z,8.07
2022-10-06T19:54:35.764Z,4.63
2022-10-06T19:57:05.602Z,9.47
2022-10-06T19:59:32.357Z,8.23
2022-10-06T20:01:58.761Z,5.80
2022-10-06T20:04:25.469Z,10.40
2022-10-06T20:06:52.152Z,11.67
2022-10-06T20:09:21.184Z,6.93
2022-10-06T20:11:50.528Z,7.90
2022-10-06T20:14:21.159Z,10.80
2022-10-06T20:16:51.210Z,6.80
2022-10-06T20:19:18.918Z,6.27
2022-10-06T20:21:45.893Z,6.00
2022-10-06T20:24:15.889Z,8.40
2022-10-06T20:26:43.114Z,7.13
2022-10-06T20:29:12.162Z,8.23
2022-10-06T20:31:42.497Z,13.53
2022-10-06T20:34:11.145Z,9.50
2022-10-06T20:36:38.436Z,7.67
2022-10-06T20:39:25.103Z,10.10
2022-10-06T20:41:53.178Z,6.97
2022-10-06T20:44:19.852Z,5.63
2022-10-06T20:46:47.176Z,11.17
2022-10-06T20:49:17.425Z,8.30
2022-10-06T20:51:52.177Z,8.67
2022-10-06T20:54:20.402Z,8.43
2022-10-06T20:56:51.929Z,7.70
2022-10-06T20:59:19.933Z,6.10
2022-10-06T21:01:46.930Z,9.00
2022-10-06T21:04:14.921Z,9.17
2022-10-06T21:06:41.584Z,6.37
2022-10-06T21:09:11.543Z,7.63
2022-10-06T21:11:37.850Z,6.77
2022-10-06T21:14:07.092Z,5.63
2022-10-06T21:16:35.012Z,9.50
2022-10-06T21:19:04.214Z,7.50
2022-10-06T21:21:31.050Z,7.70
2022-10-06T21:23:57.408Z,6.00
2022-10-06T21:26:26.427Z,4.80
2022-10-06T21:28:52.868Z,5.83
2022-10-06T21:31:22.060Z,6.43
2022-10-06T21:33:50.179Z,5.80
2022-10-06T21:36:19.003Z,12.50
2022-10-06T21:38:48.360Z,6.83
2022-10-06T21:41:29.412Z,8.60
2022-10-06T21:44:16.251Z,6.13
2022-10-06T21:46:46.793Z,7.77
2022-10-06T21:49:15.968Z,9.43
2022-10-06T21:51:45.559Z,6.20
2022-10-06T21:54:12.019Z,8.63
2022-10-06T21:56:39.164Z,6.37
2022-10-06T21:59:06.421Z,10.70
2022-10-06T22:01:35.660Z,7.50
2022-10-06T22:04:02.222Z,9.07
2022-10-06T22:06:31.340Z,7.33
2022-10-06T22:08:59.626Z,7.73
2022-10-06T22:11:28.335Z,5.93
2022-10-06T22:13:57.517Z,7.10
2022-10-06T22:16:26.583Z,7.90
2022-10-06T22:18:53.316Z,6.50
2022-10-06T22:21:31.276Z,7.10
2022-10-06T22:24:03.250Z,14.67
2022-10-06T22:26:31.872Z,5.47
2022-10-06T22:28:59.390Z,10.33
2022-10-06T22:31:27.211Z,4.93
2022-10-06T22:33:56.719Z,6.27
2022-10-06T22:36:24.448Z,5.23
2022-10-06T22:38:51.478Z,8.27
2022-10-06T22:41:17.847Z,4.80
2022-10-06T22:43:44.547Z,5.60
2022-10-06T22:46:11.630Z,5.13
2022-10-06T22:48:38.623Z,6.77
2022-10-06T22:51:05.751Z,7.40
2022-10-06T22:53:33.044Z,8.07
2022-10-06T22:56:00.367Z,6.77
2022-10-06T22:58:27.861Z,7.60
2022-10-06T23:00:54.879Z,11.03
2022-10-06T23:03:21.938Z,5.83
2022-10-06T23:05:59.253Z,5.03
2022-10-06T23:08:31.254Z,11.10
2022-10-06T23:11:06.531Z,7.10
2022-10-06T23:13:32.880Z,5.17
2022-10-06T23:16:08.309Z,5.90
2022-10-06T23:18:38.038Z,5.70
2022-10-06T23:21:21.182Z,10.47
2022-10-06T23:23:52.340Z,5.97
2022-10-06T23:26:19.752Z,6.90
2022-10-06T23:28:51.275Z,9.20
2022-10-06T23:31:17.780Z,7.63
2022-10-06T23:33:44.159Z,9.70
2022-10-06T23:36:12.117Z,8.60
2022-10-06T23:38:39.128Z,6.60
2022-10-06T23:41:06.624Z,5.23
2022-10-06T23:43:33.332Z,9.50
2022-10-06T23:45:59.724Z,7.33
2022-10-06T23:48:26.065Z,8.23
2022-10-06T23:51:21.747Z,7.23
2022-10-06T23:53:48.066Z,5.10
2022-10-06T23:56:14.475Z,6.80
2022-10-06T23:58:42.360Z,10.00
